createdAt,value
2023-02-23T00:01:41.200Z,5.09
2023-02-23T00:04:12.000Z,5.06
2023-02-23T00:06:42.557Z,5.08
2023-02-23T00:09:16.014Z,5.00
2023-02-23T00:11:46.526Z,5.11
2023-02-23T00:14:17.464Z,5.12
2023-02-23T00:16:48.308Z,5.08
2023-02-23T00:19:19.087Z,5.13
2023-02-23T00:21:53.013Z,5.14
2023-02-23T00:24:25.054Z,5.06
2023-02-23T00:26:55.978Z,5.10
2023-02-23T00:29:26.623Z,5.02
2023-02-23T00:31:57.287Z,5.02
2023-02-23T00:34:28.761Z,5.03
2023-02-23T00:36:59.283Z,5.00
2023-02-23T00:39:29.848Z,4.96
2023-02-23T00:42:01.921Z,4.96
2023-02-23T00:44:34.024Z,4.94
2023-02-23T00:47:08.033Z,4.98
2023-02-23T00:49:39.986Z,4.98
2023-02-23T00:52:13.534Z,4.87
2023-02-23T00:54:44.166Z,4.94
2023-02-23T00:57:14.791Z,4.88
2023-02-23T00:59:48.088Z,4.91
2023-02-23T01:02:19.354Z,4.95
2023-02-23T01:04:49.781Z,4.88
2023-02-23T01:07:20.231Z,4.88
2023-02-23T01:09:50.851Z,4.86
2023-02-23T01:12:21.301Z,4.88
2023-02-23T01:14:51.804Z,4.96
2023-02-23T01:17:22.346Z,4.87
2023-02-23T01:19:53.040Z,4.81
2023-02-23T01:22:23.459Z,4.76
2023-02-23T01:24:53.869Z,4.71
2023-02-23T01:27:25.810Z,4.67
2023-02-23T01:29:56.288Z,4.71
2023-02-23T01:32:26.905Z,4.76
2023-02-23T01:34:57.298Z,4.66
2023-02-23T01:37:29.071Z,4.74
2023-02-23T01:39:59.494Z,4.74
2023-02-23T01:42:29.946Z,4.74
2023-02-23T01:45:15.787Z,4.62
2023-02-23T01:47:47.997Z,4.58
2023-02-23T01:50:19.958Z,4.64
2023-02-23T01:52:52.995Z,4.63
2023-02-23T01:55:24.530Z,4.66
2023-02-23T01:58:01.010Z,4.64
2023-02-23T02:00:33.532Z,4.68
2023-02-23T02:03:08.754Z,4.62
2023-02-23T02:05:40.336Z,4.56
2023-02-23T02:08:12.937Z,4.60
2023-02-23T02:10:45.102Z,4.53
2023-02-23T02:13:18.865Z,4.46
2023-02-23T02:15:55.071Z,4.48
2023-02-23T02:18:38.245Z,4.43
2023-02-23T02:21:29.587Z,4.46
2023-02-23T02:24:24.387Z,4.39
2023-02-23T02:27:26.558Z,4.38
2023-02-23T02:30:22.279Z,4.42
2023-02-23T02:33:11.212Z,4.46
2023-02-23T02:36:04.149Z,4.40
2023-02-23T02:38:58.916Z,4.36
2023-02-23T02:41:53.893Z,4.35
2023-02-23T02:44:30.698Z,4.28
2023-02-23T02:47:04.165Z,4.30
2023-02-23T02:49:42.088Z,4.29
2023-02-23T02:52:18.536Z,4.28
2023-02-23T02:54:54.754Z,4.26
2023-02-23T02:57:28.305Z,4.31
2023-02-23T03:00:17.533Z,4.28
2023-02-23T03:03:18.488Z,4.35
2023-02-23T03:06:13.043Z,4.28
2023-02-23T03:09:07.396Z,4.18
2023-02-23T03:12:01.164Z,4.24
2023-02-23T03:14:59.551Z,4.24
2023-02-23T03:18:09.509Z,4.17
2023-02-23T03:21:02.156Z,4.15
2023-02-23T03:24:03.153Z,4.12
2023-02-23T03:26:57.595Z,4.06
2023-02-23T03:30:01.217Z,4.09
2023-02-23T03:32:52.810Z,4.02
2023-02-23T03:35:44.264Z,4.06
2023-02-23T03:38:36.015Z,4.17
2023-02-23T03:41:27.519Z,4.02
2023-02-23T03:44:21.757Z,4.07
2023-02-23T03:47:11.855Z,3.94
2023-02-23T03:50:02.641Z,3.94
2023-02-23T03:52:57.079Z,3.95
2023-02-23T03:55:48.679Z,3.92
2023-02-23T03:58:41.077Z,3.92
2023-02-23T04:01:31.860Z,3.84
2023-02-23T04:04:22.932Z,3.89
2023-02-23T04:07:14.424Z,3.84
2023-02-23T04:10:03.413Z,3.86
2023-02-23T04:13:11.548Z,3.86
2023-02-23T04:15:53.429Z,3.74
2023-02-23T04:18:34.087Z,3.80
2023-02-23T04:21:07.483Z,3.76
2023-02-23T04:23:43.740Z,3.80
2023-02-23T04:26:15.727Z,3.82
2023-02-23T04:28:46.905Z,3.77
2023-02-23T04:31:22.833Z,3.76
2023-02-23T04:33:53.983Z,3.75
2023-02-23T04:36:27.452Z,3.68
2023-02-23T04:39:00.424Z,3.72
2023-02-23T04:41:32.491Z,3.69
2023-02-23T04:44:05.121Z,3.68
2023-02-23T04:46:37.640Z,3.67
2023-02-23T04:49:09.694Z,3.62
2023-02-23T04:51:40.523Z,3.67
2023-02-23T04:54:12.250Z,3.66
2023-02-23T04:56:45.231Z,3.61
2023-02-23T04:59:15.818Z,3.68
2023-02-23T05:01:47.454Z,3.64
2023-02-23T05:04:24.129Z,3.60
2023-02-23T05:06:54.899Z,3.66
2023-02-23T05:09:33.430Z,3.62
2023-02-23T05:12:05.547Z,3.56
2023-02-23T05:14:39.061Z,3.58
2023-02-23T05:17:10.420Z,3.52
2023-02-23T05:19:41.704Z,3.47
2023-02-23T05:22:13.381Z,3.52
2023-02-23T05:24:44.304Z,3.46
2023-02-23T05:27:18.756Z,3.41
2023-02-23T05:29:49.799Z,3.44
2023-02-23T05:32:20.384Z,3.43
2023-02-23T05:34:51.030Z,3.40
2023-02-23T05:37:23.257Z,3.39
2023-02-23T05:39:56.934Z,3.36
2023-02-23T05:42:28.164Z,3.32
2023-02-23T05:44:58.793Z,3.33
2023-02-23T05:47:29.435Z,3.32
2023-02-23T05:50:00.562Z,3.35
2023-02-23T05:52:33.759Z,3.31
2023-02-23T05:55:05.156Z,3.36
2023-02-23T05:57:38.822Z,3.30
2023-02-23T06:00:11.541Z,3.32
2023-02-23T06:02:44.145Z,3.32
2023-02-23T06:05:15.831Z,3.34
2023-02-23T06:07:51.287Z,3.34
2023-02-23T06:10:23.490Z,3.29
2023-02-23T06:12:57.774Z,3.24
2023-02-23T06:15:30.021Z,3.26
2023-02-23T06:18:01.623Z,3.20
2023-02-23T06:20:36.578Z,3.27
2023-02-23T06:23:10.027Z,3.21
2023-02-23T06:25:43.462Z,3.17
2023-02-23T06:28:15.674Z,3.18
2023-02-23T06:30:47.276Z,3.16
2023-02-23T06:33:18.909Z,3.25
2023-02-23T06:35:49.625Z,3.32
2023-02-23T06:38:20.678Z,3.26
2023-02-23T06:40:51.383Z,3.24
2023-02-23T06:43:23.340Z,3.39
2023-02-23T06:45:56.162Z,3.28
2023-02-23T06:48:27.154Z,3.40
2023-02-23T06:51:02.111Z,3.48
2023-02-23T06:53:33.461Z,3.58
2023-02-23T06:56:04.914Z,3.45
2023-02-23T06:58:35.780Z,3.56
2023-02-23T07:01:06.513Z,3.60
2023-02-23T07:03:40.894Z,3.74
2023-02-23T07:06:13.600Z,3.87
2023-02-23T07:08:46.738Z,3.82
2023-02-23T07:11:19.193Z,3.94
2023-02-23T07:13:52.514Z,4.04
2023-02-23T07:16:24.136Z,4.10
2023-02-23T07:18:57.493Z,4.02
2023-02-23T07:21:28.139Z,4.12
2023-02-23T07:23:59.023Z,4.21
2023-02-23T07:26:30.037Z,4.12
2023-02-23T07:29:02.062Z,4.18
2023-02-23T07:31:32.627Z,4.28
2023-02-23T07:34:05.589Z,4.25
2023-02-23T07:36:39.153Z,4.40
2023-02-23T07:39:09.985Z,4.29
2023-02-23T07:41:41.091Z,4.39
2023-02-23T07:44:11.555Z,4.37
2023-02-23T07:46:46.344Z,4.66
2023-02-23T07:49:16.931Z,4.55
2023-02-23T07:51:50.928Z,4.64
2023-02-23T07:54:22.488Z,4.69
2023-02-23T07:56:53.590Z,4.70
2023-02-23T07:59:24.030Z,4.72
2023-02-23T08:01:54.859Z,4.78
2023-02-23T08:04:26.044Z,5.04
2023-02-23T08:06:59.511Z,5.12
2023-02-23T08:09:31.602Z,4.93
2023-02-23T08:12:03.408Z,4.90
2023-02-23T08:14:35.417Z,4.90
2023-02-23T08:17:06.060Z,5.10
2023-02-23T08:19:38.429Z,5.22
2023-02-23T08:22:10.184Z,5.26
2023-02-23T08:24:45.386Z,5.24
2023-02-23T08:27:17.088Z,5.24
2023-02-23T08:29:49.220Z,5.29
2023-02-23T08:32:21.566Z,5.42
2023-02-23T08:34:56.828Z,5.41
2023-02-23T08:37:27.800Z,5.39
2023-02-23T08:40:00.668Z,5.09
2023-02-23T08:42:31.739Z,5.26
2023-02-23T08:45:04.442Z,5.51
2023-02-23T08:47:36.128Z,5.57
2023-02-23T08:50:09.686Z,5.65
2023-02-23T08:52:41.667Z,5.74
2023-02-23T08:55:14.017Z,6.03
2023-02-23T08:57:45.341Z,6.04
2023-02-23T09:00:17.484Z,6.02
2023-02-23T09:02:48.324Z,6.16
2023-02-23T09:05:19.364Z,6.35
2023-02-23T09:07:51.891Z,6.32
2023-02-23T09:10:26.708Z,6.18
2023-02-23T09:13:00.156Z,6.30
2023-02-23T09:15:32.009Z,6.40
2023-02-23T09:18:03.817Z,6.64
2023-02-23T09:20:34.634Z,6.60
2023-02-23T09:23:07.663Z,6.77
2023-02-23T09:25:45.462Z,6.80
2023-02-23T09:28:18.413Z,7.04
2023-02-23T09:30:49.444Z,7.24
2023-02-23T09:33:21.570Z,6.88
2023-02-23T09:35:56.576Z,6.29
2023-02-23T09:38:26.895Z,6.64
2023-02-23T09:40:58.986Z,6.75
2023-02-23T09:43:52.062Z,6.73
2023-02-23T09:46:41.044Z,6.82
2023-02-23T09:49:16.101Z,6.87
2023-02-23T09:51:51.952Z,6.77
2023-02-23T09:54:26.679Z,7.11
2023-02-23T09:57:00.509Z,7.36
2023-02-23T09:59:33.028Z,7.66
2023-02-23T10:02:20.400Z,7.97
2023-02-23T10:04:56.836Z,7.72
2023-02-23T10:07:32.980Z,7.60
2023-02-23T10:10:26.404Z,7.84
2023-02-23T10:13:21.050Z,8.60
2023-02-23T10:16:10.015Z,8.94
2023-02-23T10:19:07.443Z,9.10
2023-02-23T10:21:44.148Z,8.98
2023-02-23T10:24:20.583Z,9.14
2023-02-23T10:26:55.177Z,9.05
2023-02-23T10:29:35.818Z,9.56
2023-02-23T10:32:15.626Z,9.54
2023-02-23T10:34:48.682Z,9.94
2023-02-23T10:37:20.568Z,9.74
2023-02-23T10:39:51.873Z,10.26
2023-02-23T10:42:30.072Z,10.20
2023-02-23T10:45:02.583Z,10.07
2023-02-23T10:47:40.033Z,10.70
2023-02-23T10:50:14.369Z,10.84
2023-02-23T10:52:47.594Z,11.10
2023-02-23T10:55:32.699Z,10.80
2023-02-23T10:58:18.385Z,10.74
2023-02-23T11:01:05.370Z,11.15
2023-02-23T11:03:50.011Z,11.32
2023-02-23T11:06:39.022Z,11.09
2023-02-23T11:09:44.422Z,11.52
2023-02-23T11:12:07.487Z,10.90
2023-02-23T11:14:37.860Z,10.70
2023-02-23T11:17:15.906Z,10.72
2023-02-23T11:19:47.189Z,10.90
2023-02-23T11:22:29.250Z,11.14
2023-02-23T11:25:01.877Z,11.13
2023-02-23T11:27:35.848Z,11.48
2023-02-23T11:30:07.882Z,11.23
2023-02-23T11:32:40.706Z,11.17
2023-02-23T11:35:26.216Z,11.01
2023-02-23T11:37:58.379Z,11.00
2023-02-23T11:40:32.005Z,11.08
2023-02-23T11:43:12.642Z,10.93
2023-02-23T11:45:55.391Z,11.22
2023-02-23T11:48:40.781Z,11.51
2023-02-23T11:51:15.926Z,11.36
2023-02-23T11:53:49.629Z,11.60
2023-02-23T11:56:28.339Z,11.80
2023-02-23T11:59:04.555Z,11.66
2023-02-23T12:01:50.033Z,11.93
2023-02-23T12:04:34.567Z,11.90
2023-02-23T12:07:24.801Z,12.09
2023-02-23T12:10:02.968Z,11.56
2023-02-23T12:12:42.426Z,12.03
2023-02-23T12:15:15.981Z,12.45
2023-02-23T12:17:50.761Z,12.61
2023-02-23T12:20:32.669Z,12.22
2023-02-23T12:23:06.572Z,12.00
2023-02-23T12:26:01.569Z,12.26
2023-02-23T12:28:41.776Z,12.14
2023-02-23T12:31:24.576Z,12.10
2023-02-23T12:33:58.083Z,12.26
2023-02-23T12:36:32.036Z,12.32
2023-02-23T12:39:11.217Z,12.32
2023-02-23T12:41:47.626Z,12.20
2023-02-23T12:47:47.070Z,12.80
2023-02-23T12:50:40.045Z,12.71
2023-02-23T12:53:23.699Z,11.74
2023-02-23T12:56:06.071Z,11.97
2023-02-23T12:58:45.680Z,11.66
2023-02-23T13:01:34.169Z,11.73
2023-02-23T13:04:41.096Z,11.46
2023-02-23T13:07:46.662Z,11.56
2023-02-23T13:10:38.618Z,11.42
2023-02-23T13:13:33.402Z,11.54
2023-02-23T13:16:11.993Z,11.76
2023-02-23T13:18:47.600Z,11.94
2023-02-23T13:21:49.469Z,11.80
2023-02-23T13:24:38.514Z,11.95
2023-02-23T13:27:28.933Z,11.92
2023-02-23T13:29:59.694Z,11.72
2023-02-23T13:32:33.312Z,11.66
2023-02-23T13:35:12.697Z,11.74
2023-02-23T13:37:59.566Z,11.36
2023-02-23T13:40:39.041Z,10.98
2023-02-23T13:43:24.384Z,11.02
2023-02-23T13:46:21.851Z,11.04
2023-02-23T13:49:04.305Z,10.81
2023-02-23T13:51:37.959Z,10.86
2023-02-23T13:54:20.259Z,10.62
2023-02-23T13:56:59.546Z,10.61
2023-02-23T13:59:34.072Z,10.82
2023-02-23T14:02:27.216Z,10.73
2023-02-23T14:05:19.115Z,10.77
2023-02-23T14:07:56.118Z,10.70
2023-02-23T14:10:29.855Z,10.73
2023-02-23T14:13:19.580Z,10.51
2023-02-23T14:15:54.858Z,10.46
2023-02-23T14:18:31.252Z,10.58
2023-02-23T14:21:26.096Z,10.41
2023-02-23T14:24:15.729Z,10.45
2023-02-23T14:27:38.504Z,10.42
2023-02-23T14:30:14.507Z,10.37
2023-02-23T14:32:47.762Z,10.54
2023-02-23T14:35:51.040Z,10.30
2023-02-23T14:38:47.129Z,10.32
2023-02-23T14:41:09.046Z,10.28
2023-02-23T14:43:42.858Z,10.34
2023-02-23T14:46:21.862Z,10.24
2023-02-23T14:49:04.802Z,10.30
2023-02-23T14:51:42.532Z,10.30
2023-02-23T14:54:37.244Z,10.18
2023-02-23T14:57:27.387Z,10.26
2023-02-23T15:00:01.231Z,10.23
2023-02-23T15:02:40.760Z,10.28
2023-02-23T15:05:20.078Z,10.06
2023-02-23T15:07:57.807Z,9.79
2023-02-23T15:10:43.418Z,9.89
2023-02-23T15:13:23.977Z,9.67
2023-02-23T15:16:03.554Z,9.76
2023-02-23T15:18:40.223Z,9.74
2023-02-23T15:21:16.540Z,9.78
2023-02-23T15:23:50.818Z,9.63
2023-02-23T15:26:30.043Z,9.57
2023-02-23T15:29:17.230Z,9.57
2023-02-23T15:31:52.037Z,9.67
2023-02-23T15:34:26.591Z,9.70
2023-02-23T15:37:06.243Z,9.54
2023-02-23T15:39:40.191Z,9.68
2023-02-23T15:42:13.564Z,9.48
2023-02-23T15:44:45.267Z,9.39
2023-02-23T15:47:28.567Z,9.56
2023-02-23T15:50:11.221Z,9.60
2023-02-23T15:52:50.783Z,9.44
2023-02-23T15:55:27.982Z,9.29
2023-02-23T15:58:01.268Z,9.37
2023-02-23T16:00:36.130Z,9.44
2023-02-23T16:03:09.109Z,9.62
2023-02-23T16:05:46.459Z,9.41
2023-02-23T16:08:27.044Z,9.37
2023-02-23T16:11:03.330Z,9.32
2023-02-23T16:13:34.511Z,9.38
2023-02-23T16:16:11.903Z,9.32
2023-02-23T16:18:44.901Z,9.44
2023-02-23T16:21:21.436Z,9.34
2023-02-23T16:23:55.386Z,9.26
2023-02-23T16:26:49.916Z,9.45
2023-02-23T16:29:23.882Z,9.30
2023-02-23T16:31:59.791Z,9.21
2023-02-23T16:34:39.178Z,9.27
2023-02-23T16:37:18.915Z,9.25
2023-02-23T16:39:49.872Z,9.12
2023-02-23T16:42:29.406Z,9.18
2023-02-23T16:45:03.211Z,9.16
2023-02-23T16:47:38.598Z,9.11
2023-02-23T16:50:21.766Z,9.01
2023-02-23T16:52:54.121Z,8.94
2023-02-23T16:55:26.746Z,8.88
2023-02-23T16:58:02.984Z,8.87
2023-02-23T17:00:34.794Z,8.87
2023-02-23T17:03:09.936Z,8.94
2023-02-23T17:05:43.560Z,8.98
2023-02-23T17:08:14.293Z,8.72
2023-02-23T17:10:49.070Z,8.87
2023-02-23T17:13:22.295Z,8.73
2023-02-23T17:15:58.043Z,8.70
2023-02-23T17:18:31.407Z,8.65
2023-02-23T17:21:04.628Z,8.59
2023-02-23T17:23:52.008Z,8.74
2023-02-23T17:26:25.932Z,8.81
2023-02-23T17:28:56.557Z,8.70
2023-02-23T17:31:27.725Z,8.96
2023-02-23T17:33:58.669Z,8.66
2023-02-23T17:36:31.760Z,8.66
2023-02-23T17:39:03.244Z,8.80
2023-02-23T17:41:34.251Z,8.72
2023-02-23T17:44:06.858Z,8.75
2023-02-23T17:46:37.505Z,8.64
2023-02-23T17:49:09.508Z,8.72
2023-02-23T17:51:41.547Z,8.66
2023-02-23T17:54:14.981Z,8.77
2023-02-23T17:56:45.782Z,8.75
2023-02-23T17:59:16.447Z,8.68
2023-02-23T18:01:49.159Z,8.68
2023-02-23T18:04:21.815Z,8.62
2023-02-23T18:06:52.599Z,8.68
2023-02-23T18:09:25.346Z,8.68
2023-02-23T18:11:56.493Z,8.62
2023-02-23T18:14:27.758Z,8.61
2023-02-23T18:16:58.628Z,8.60
2023-02-23T18:19:30.859Z,8.52
2023-02-23T18:22:01.279Z,8.54
2023-02-23T18:24:32.532Z,8.56
2023-02-23T18:27:03.261Z,8.68
2023-02-23T18:29:36.773Z,8.58
2023-02-23T18:32:09.288Z,8.56
2023-02-23T18:34:41.591Z,8.59
2023-02-23T18:37:12.097Z,8.58
2023-02-23T18:39:45.146Z,8.52
2023-02-23T18:42:17.400Z,8.48
2023-02-23T18:44:48.145Z,8.62
2023-02-23T18:47:19.290Z,8.57
2023-02-23T18:49:50.026Z,8.48
2023-02-23T18:52:20.795Z,8.67
2023-02-23T18:54:51.473Z,8.40
2023-02-23T18:57:29.532Z,8.52
2023-02-23T19:00:00.124Z,8.37
2023-02-23T19:02:31.051Z,8.48
2023-02-23T19:05:03.099Z,8.38
2023-02-23T19:07:35.834Z,8.42
2023-02-23T19:10:12.299Z,8.58
2023-02-23T19:15:33.365Z,8.34
2023-02-23T19:18:04.793Z,8.32
2023-02-23T19:20:36.217Z,8.25
2023-02-23T19:23:08.069Z,8.33
2023-02-23T19:25:38.732Z,8.29
2023-02-23T19:28:11.986Z,8.26
2023-02-23T19:30:46.902Z,8.35
2023-02-23T19:33:18.839Z,8.36
2023-02-23T19:35:50.993Z,8.26
2023-02-23T19:38:22.735Z,8.37
2023-02-23T19:40:55.013Z,8.27
2023-02-23T19:43:28.500Z,8.34
2023-02-23T19:46:05.275Z,8.38
2023-02-23T19:48:37.254Z,8.28
2023-02-23T19:51:13.285Z,8.20
2023-02-23T19:53:43.899Z,8.19
2023-02-23T19:56:16.958Z,8.17
2023-02-23T19:58:50.286Z,8.13
2023-02-23T20:01:23.030Z,8.00
2023-02-23T20:03:59.492Z,7.88
2023-02-23T20:06:34.597Z,7.78
2023-02-23T20:09:06.177Z,7.58
2023-02-23T20:11:37.483Z,7.46
2023-02-23T20:14:08.389Z,7.41
2023-02-23T20:16:39.279Z,7.38
2023-02-23T20:19:11.531Z,7.36
2023-02-23T20:21:43.477Z,7.28
2023-02-23T20:24:14.131Z,7.20
2023-02-23T20:26:46.515Z,7.16
2023-02-23T20:29:19.267Z,7.14
2023-02-23T20:31:52.167Z,7.14
2023-02-23T20:34:24.785Z,7.11
2023-02-23T20:36:56.799Z,7.12
2023-02-23T20:39:29.110Z,7.22
2023-02-23T20:42:00.393Z,7.18
2023-02-23T20:44:32.942Z,7.15
2023-02-23T20:47:07.395Z,7.10
2023-02-23T20:49:39.031Z,7.01
2023-02-23T20:52:09.649Z,7.06
2023-02-23T20:54:40.367Z,6.98
2023-02-23T20:57:11.764Z,7.09
2023-02-23T20:59:44.148Z,7.26
2023-02-23T21:02:15.466Z,7.17
2023-02-23T21:04:47.519Z,7.12
2023-02-23T21:07:18.110Z,7.02
2023-02-23T21:09:48.725Z,7.07
2023-02-23T21:12:19.496Z,7.13
2023-02-23T21:14:50.589Z,7.14
2023-02-23T21:17:21.180Z,6.98
2023-02-23T21:19:54.869Z,7.11
2023-02-23T21:22:25.468Z,6.90
2023-02-23T21:25:00.007Z,6.94
2023-02-23T21:27:31.443Z,6.93
2023-02-23T21:30:02.124Z,6.94
2023-02-23T21:32:34.584Z,6.89
2023-02-23T21:35:05.478Z,6.86
2023-02-23T21:37:37.827Z,6.92
2023-02-23T21:40:11.461Z,6.94
2023-02-23T21:42:43.958Z,6.92
2023-02-23T21:45:14.568Z,6.98
2023-02-23T21:47:47.469Z,6.87
2023-02-23T21:50:20.123Z,6.95
2023-02-23T21:52:52.454Z,6.88
2023-02-23T21:55:23.500Z,7.43
2023-02-23T21:57:57.817Z,7.38
2023-02-23T22:00:30.037Z,7.32
2023-02-23T22:03:01.328Z,7.04
2023-02-23T22:05:33.693Z,7.21
2023-02-23T22:08:04.372Z,7.16
2023-02-23T22:10:35.968Z,6.89
2023-02-23T22:13:06.566Z,7.00
2023-02-23T22:15:37.678Z,6.93
2023-02-23T22:18:09.331Z,6.96
2023-02-23T22:20:40.290Z,6.92
2023-02-23T22:23:13.910Z,6.80
2023-02-23T22:25:46.206Z,6.84
2023-02-23T22:28:17.329Z,6.86
2023-02-23T22:30:49.477Z,6.82
2023-02-23T22:33:21.360Z,6.76
2023-02-23T22:35:55.562Z,6.77
2023-02-23T22:38:27.838Z,6.69
2023-02-23T22:40:59.470Z,6.78
2023-02-23T22:43:30.764Z,6.86
2023-02-23T22:46:03.320Z,6.74
2023-02-23T22:48:36.550Z,6.90
2023-02-23T22:51:07.773Z,6.83
2023-02-23T22:53:39.640Z,6.92
2023-02-23T22:56:10.667Z,6.90
2023-02-23T22:58:42.393Z,6.91
2023-02-23T23:01:13.349Z,6.85
2023-02-23T23:03:46.193Z,6.92
2023-02-23T23:06:27.036Z,6.94
2023-02-23T23:08:58.804Z,6.90
2023-02-23T23:11:31.121Z,6.84
2023-02-23T23:14:02.219Z,6.89
2023-02-23T23:16:35.093Z,6.86
2023-02-23T23:19:10.394Z,6.82
2023-02-23T23:21:44.024Z,6.98
2023-02-23T23:24:18.813Z,6.90
2023-02-23T23:26:53.969Z,6.85
2023-02-23T23:29:25.807Z,6.87
2023-02-23T23:31:58.412Z,6.85
2023-02-23T23:34:29.027Z,6.74
2023-02-23T23:37:01.199Z,6.70
2023-02-23T23:39:31.689Z,6.82
2023-02-23T23:42:02.175Z,6.74
2023-02-23T23:44:34.265Z,6.80
2023-02-23T23:47:08.038Z,6.81
2023-02-23T23:49:41.843Z,6.74
2023-02-23T23:52:15.458Z,6.77
2023-02-23T23:54:48.816Z,6.69
2023-02-23T23:57:20.127Z,6.69
2023-02-23T23:59:51.319Z,6.76
